Time;durP1;ratioP1;P1;durP2;ratioP2;P2;SDS_P1;SDS_P2;PMS_P1;PMS_P2;Temp;Humidity;BMP_temperature;BMP_pressure;BME280_temperature;BME280_humidity;BME280_pressure;Samples;Min_cycle;Max_cycle;Signal;HPM_P1;HPM_P2
2022/06/07 00:00:56;;;;;;;13.43;7.68;;;;;;;;;;10473461;28;20418;-88
2022/06/07 00:05:58;;;;;;;11.37;7.50;;;;;;;;;;10468652;28;20523;-89
2022/06/07 00:11:01;;;;;;;9.10;7.18;;;;;;;;;;10467663;28;20486;-89
2022/06/07 00:16:03;;;;;;;8.18;5.82;;;;;;;;;;10470768;28;20977;-89
2022/06/07 00:21:06;;;;;;;8.77;5.30;;;;;;;;;;10462606;28;20515;-88
2022/06/07 00:26:09;;;;;;;6.85;4.53;;;;;;;;;;10463639;28;20904;-87
2022/06/07 00:31:11;;;;;;;6.00;4.50;;;;;;;;;;10471266;28;20406;-88
2022/06/07 00:36:14;;;;;;;6.50;4.70;;;;;;;;;;10463453;28;20823;-88
2022/06/07 00:41:17;;;;;;;7.00;4.57;;;;;;;;;;10457785;28;20500;-88
2022/06/07 00:46:19;;;;;;;8.10;4.53;;;;;;;;;;10464603;28;20774;-88
2022/06/07 00:51:20;;;;;;;9.73;4.90;;;;;;;;;;10465009;28;20945;-88
2022/06/07 00:56:24;;;;;;;7.18;4.70;;;;;;;;;;10472406;28;20438;-87
2022/06/07 01:01:26;;;;;;;6.83;4.30;;;;;;;;;;10471572;28;21040;-88
2022/06/07 01:11:48;;;;;;;5.80;4.32;;;;;;;;;;10479087;28;20384;-89
2022/06/07 01:16:50;;;;;;;6.28;4.32;;;;;;;;;;10485657;28;20929;-89
2022/06/07 01:21:53;;;;;;;7.40;4.47;;;;;;;;;;10470754;28;20530;-89
2022/06/07 01:26:55;;;;;;;6.57;4.80;;;;;;;;;;10465646;28;20398;-89
2022/06/07 01:31:57;;;;;;;9.05;4.85;;;;;;;;;;10480370;28;20492;-88
2022/06/07 01:37:01;;;;;;;7.32;5.28;;;;;;;;;;10484318;28;20781;-88
2022/06/07 01:42:04;;;;;;;8.93;5.40;;;;;;;;;;10462406;28;20428;-88
2022/06/07 01:47:09;;;;;;;7.07;5.22;;;;;;;;;;10474837;28;20842;-89
2022/06/07 01:52:14;;;;;;;8.13;5.30;;;;;;;;;;10472039;28;20406;-88
2022/06/07 01:57:15;;;;;;;8.68;5.30;;;;;;;;;;10460463;28;20410;-89
2022/06/07 02:02:18;;;;;;;8.38;6.00;;;;;;;;;;10462656;28;20426;-88
2022/06/07 02:07:22;;;;;;;7.17;5.63;;;;;;;;;;10487790;28;20425;-89
2022/06/07 02:12:24;;;;;;;7.30;5.70;;;;;;;;;;10487175;28;20418;-89
2022/06/07 02:17:25;;;;;;;7.43;5.18;;;;;;;;;;10487226;28;20889;-88
2022/06/07 02:22:29;;;;;;;6.90;5.90;;;;;;;;;;10507254;28;20426;-88
2022/06/07 02:27:31;;;;;;;8.90;6.03;;;;;;;;;;10526265;28;20402;-88
2022/06/07 02:32:34;;;;;;;7.20;5.57;;;;;;;;;;10488307;28;20397;-88
2022/06/07 02:37:39;;;;;;;8.38;5.95;;;;;;;;;;10484938;28;20485;-88
2022/06/07 02:42:41;;;;;;;9.33;6.57;;;;;;;;;;10484533;28;20429;-88
2022/06/07 02:47:43;;;;;;;8.67;6.30;;;;;;;;;;10483981;28;20766;-88
2022/06/07 02:52:47;;;;;;;8.27;6.60;;;;;;;;;;10484190;28;20445;-89
2022/06/07 02:57:48;;;;;;;9.80;7.38;;;;;;;;;;10483419;28;20413;-88
2022/06/07 03:02:50;;;;;;;11.73;7.35;;;;;;;;;;10482603;28;20467;-88
2022/06/07 03:07:53;;;;;;;9.85;7.90;;;;;;;;;;10497942;28;20412;-89
2022/06/07 03:12:55;;;;;;;8.93;7.90;;;;;;;;;;10483184;28;20465;-89
2022/06/07 03:17:57;;;;;;;13.37;8.20;;;;;;;;;;10482513;28;20504;-89
2022/06/07 03:23:00;;;;;;;9.80;7.80;;;;;;;;;;10483077;28;20481;-88
2022/06/07 03:28:03;;;;;;;10.60;8.02;;;;;;;;;;10481748;28;20497;-90
2022/06/07 03:33:05;;;;;;;10.18;8.40;;;;;;;;;;10486671;28;20511;-89
2022/06/07 03:38:09;;;;;;;13.45;8.98;;;;;;;;;;10481623;28;20432;-89
2022/06/07 03:43:12;;;;;;;12.73;8.83;;;;;;;;;;10475939;28;20483;-88
2022/06/07 03:48:13;;;;;;;10.70;8.57;;;;;;;;;;10483898;28;20808;-89
2022/06/07 03:53:17;;;;;;;11.00;8.27;;;;;;;;;;10482101;28;20406;-89
2022/06/07 03:58:19;;;;;;;10.90;8.25;;;;;;;;;;10495723;28;20747;-88
2022/06/07 04:03:22;;;;;;;9.00;7.23;;;;;;;;;;10492823;28;20421;-88
2022/06/07 04:08:26;;;;;;;7.15;5.50;;;;;;;;;;10462993;28;20414;-88
2022/06/07 04:13:31;;;;;;;6.30;4.85;;;;;;;;;;10467177;28;20397;-88
2022/06/07 04:18:33;;;;;;;6.88;4.80;;;;;;;;;;10474018;28;20416;-88
2022/06/07 04:23:37;;;;;;;5.40;3.95;;;;;;;;;;10478270;28;20405;-88
2022/06/07 04:28:40;;;;;;;5.80;4.05;;;;;;;;;;10475315;28;20489;-88
2022/06/07 04:33:42;;;;;;;4.93;4.10;;;;;;;;;;10473824;28;20823;-88
2022/06/07 04:38:46;;;;;;;5.35;3.53;;;;;;;;;;10472654;28;20421;-88
2022/06/07 04:43:48;;;;;;;4.47;3.45;;;;;;;;;;10477231;28;20406;-89
2022/06/07 04:48:50;;;;;;;4.43;3.60;;;;;;;;;;10476604;28;20412;-88
2022/06/07 04:53:54;;;;;;;4.95;3.83;;;;;;;;;;10475996;28;21412;-88
2022/06/07 04:58:58;;;;;;;6.45;4.13;;;;;;;;;;10482632;28;20421;-88
2022/06/07 05:04:00;;;;;;;6.00;4.50;;;;;;;;;;10479848;28;20498;-89
2022/06/07 05:09:07;;;;;;;8.30;4.30;;;;;;;;;;10480264;28;20425;-89
2022/06/07 05:14:09;;;;;;;7.80;3.97;;;;;;;;;;10479328;28;20457;-89
2022/06/07 05:19:13;;;;;;;6.60;3.88;;;;;;;;;;10481309;28;20791;-89
2022/06/07 05:24:17;;;;;;;5.93;3.60;;;;;;;;;;10476087;28;20445;-89
2022/06/07 05:29:23;;;;;;;5.85;3.78;;;;;;;;;;10474322;28;20410;-88
2022/06/07 05:34:24;;;;;;;5.60;3.77;;;;;;;;;;10476040;28;20506;-90
2022/06/07 05:39:30;;;;;;;6.70;3.85;;;;;;;;;;10477356;28;20490;-90
2022/06/07 05:44:32;;;;;;;5.20;3.88;;;;;;;;;;10469378;28;20441;-87
2022/06/07 05:49:34;;;;;;;6.68;4.40;;;;;;;;;;10473175;28;20484;-88
2022/06/07 05:54:38;;;;;;;8.50;4.33;;;;;;;;;;10466948;28;20920;-81
2022/06/07 05:59:40;;;;;;;6.30;4.18;;;;;;;;;;10476481;28;20983;-87
2022/06/07 06:04:42;;;;;;;6.05;4.25;;;;;;;;;;10477902;28;20885;-87
2022/06/07 06:15:06;;;;;;;6.57;4.33;;;;;;;;;;10469163;28;20395;-86
2022/06/07 06:20:09;;;;;;;6.65;4.30;;;;;;;;;;10476813;28;20418;-88
2022/06/07 06:25:13;;;;;;;6.20;3.97;;;;;;;;;;10496284;28;20887;-88
2022/06/07 06:30:15;;;;;;;7.90;4.33;;;;;;;;;;10499372;28;20452;-87
2022/06/07 06:35:17;;;;;;;9.45;4.40;;;;;;;;;;10479169;28;20754;-87
2022/06/07 06:40:20;;;;;;;5.97;4.22;;;;;;;;;;10466740;28;20773;-87
2022/06/07 06:45:22;;;;;;;5.53;4.00;;;;;;;;;;10450210;28;20891;-87
2022/06/07 06:50:24;;;;;;;5.93;4.53;;;;;;;;;;10468386;28;20498;-86
2022/06/07 06:55:28;;;;;;;9.93;3.60;;;;;;;;;;10463363;28;20826;-88
2022/06/07 07:00:30;;;;;;;5.63;3.60;;;;;;;;;;10467901;28;20511;-86
2022/06/07 07:05:35;;;;;;;6.90;3.60;;;;;;;;;;10466651;28;20407;-87
2022/06/07 07:10:38;;;;;;;3.80;2.80;;;;;;;;;;10467565;28;20499;-86
2022/06/07 07:15:40;;;;;;;3.80;2.88;;;;;;;;;;10470715;28;20513;-87
2022/06/07 07:20:42;;;;;;;6.88;2.90;;;;;;;;;;10468106;28;20569;-86
2022/06/07 07:25:45;;;;;;;4.47;2.70;;;;;;;;;;10470072;28;20489;-87
2022/06/07 07:30:47;;;;;;;4.43;2.67;;;;;;;;;;10466052;28;20406;-87
2022/06/07 07:35:49;;;;;;;5.63;3.35;;;;;;;;;;10467066;28;20398;-86
2022/06/07 07:40:53;;;;;;;4.00;2.83;;;;;;;;;;10467415;28;21653;-86
2022/06/07 07:45:55;;;;;;;6.95;2.80;;;;;;;;;;10468249;28;20437;-87
2022/06/07 07:51:04;;;;;;;6.13;2.92;;;;;;;;;;10470198;28;20488;-87
2022/06/07 07:56:08;;;;;;;5.47;3.00;;;;;;;;;;10465397;28;20420;-87
2022/06/07 08:01:12;;;;;;;4.53;3.38;;;;;;;;;;10468055;28;20422;-86
2022/06/07 08:06:17;;;;;;;7.07;3.80;;;;;;;;;;10466486;28;20468;-87
2022/06/07 08:11:21;;;;;;;5.90;3.95;;;;;;;;;;10462406;28;20393;-87
2022/06/07 08:16:24;;;;;;;6.10;3.90;;;;;;;;;;10465746;28;20777;-87
2022/06/07 08:21:28;;;;;;;6.72;3.63;;;;;;;;;;10466144;28;20426;-87
2022/06/07 08:26:32;;;;;;;4.13;3.45;;;;;;;;;;10467258;28;20403;-87
2022/06/07 08:31:34;;;;;;;6.95;3.88;;;;;;;;;;10466796;28;20410;-88
2022/06/07 08:42:00;;;;;;;4.97;3.40;;;;;;;;;;10466038;28;20511;-88
2022/06/07 08:47:06;;;;;;;28.00;23.40;;;;;;;;;;10471560;28;20398;-88
2022/06/07 08:52:14;;;;;;;30.07;25.80;;;;;;;;;;10467279;28;20592;-88
2022/06/07 08:57:21;;;;;;;27.85;24.73;;;;;;;;;;10467167;28;20414;-88
2022/06/07 09:02:49;;;;;;;17.15;13.55;;;;;;;;;;10463170;28;21087;-88
2022/06/07 09:07:51;;;;;;;13.30;11.07;;;;;;;;;;10478225;28;20737;-90
2022/06/07 09:13:05;;;;;;;8.60;6.90;;;;;;;;;;10475099;28;20501;-89
2022/06/07 09:18:09;;;;;;;6.97;5.93;;;;;;;;;;10477249;28;20437;-89
2022/06/07 09:23:16;;;;;;;6.88;4.30;;;;;;;;;;10458018;28;20422;-89
2022/06/07 09:28:23;;;;;;;6.35;3.78;;;;;;;;;;10478552;28;20414;-88
2022/06/07 09:33:28;;;;;;;3.83;2.80;;;;;;;;;;10488587;28;20404;-89
2022/06/07 09:38:34;;;;;;;3.35;2.90;;;;;;;;;;10470025;28;20908;-89
2022/06/07 09:43:43;;;;;;;5.30;2.60;;;;;;;;;;10480441;28;20417;-88
2022/06/07 09:48:46;;;;;;;5.57;3.00;;;;;;;;;;10477954;28;20489;-89
2022/06/07 09:53:59;;;;;;;5.07;2.63;;;;;;;;;;10471571;28;20715;-88
2022/06/07 09:59:17;;;;;;;4.47;2.78;;;;;;;;;;10458459;28;20397;-89
2022/06/07 10:04:29;;;;;;;4.60;2.50;;;;;;;;;;10472045;28;20434;-89
2022/06/07 10:09:45;;;;;;;4.57;3.03;;;;;;;;;;10486561;28;20396;-89
2022/06/07 10:14:54;;;;;;;3.93;2.70;;;;;;;;;;10474196;28;20402;-89
2022/06/07 10:20:03;;;;;;;4.40;2.90;;;;;;;;;;10476009;28;20807;-89
2022/06/07 10:25:18;;;;;;;4.72;3.00;;;;;;;;;;10462574;28;20506;-89
2022/06/07 10:30:29;;;;;;;3.90;2.80;;;;;;;;;;10472486;28;20439;-90
2022/06/07 10:35:42;;;;;;;3.83;3.20;;;;;;;;;;10478170;28;20406;-90
2022/06/07 10:40:59;;;;;;;5.03;3.10;;;;;;;;;;10516293;28;20414;-90
2022/06/07 10:46:03;;;;;;;4.57;3.28;;;;;;;;;;10522925;28;20402;-89
2022/06/07 10:52:20;;;;;;;4.65;3.15;;;;;;;;;;10485511;28;20754;-89
2022/06/07 10:56:40;;;;;;;3.75;2.78;;;;;;;;;;10473117;28;20420;-89
2022/06/07 11:01:52;;;;;;;5.00;3.30;;;;;;;;;;10472675;28;20430;-89
2022/06/07 11:12:18;;;;;;;5.57;2.90;;;;;;;;;;10476422;28;20788;-87
2022/06/07 11:17:30;;;;;;;3.30;2.55;;;;;;;;;;10483647;28;20412;-89
2022/06/07 11:22:36;;;;;;;3.30;2.47;;;;;;;;;;10481684;28;20422;-89
2022/06/07 11:27:38;;;;;;;2.97;2.67;;;;;;;;;;10467733;28;20421;-91
2022/06/07 11:32:53;;;;;;;2.80;2.40;;;;;;;;;;10475393;28;20457;-89
2022/06/07 11:37:54;;;;;;;3.85;2.78;;;;;;;;;;10468763;28;20763;-91
2022/06/07 11:42:56;;;;;;;4.15;3.00;;;;;;;;;;10471733;28;21059;-90
2022/06/07 11:48:23;;;;;;;5.40;2.47;;;;;;;;;;10466529;28;20502;-91
2022/06/07 11:53:29;;;;;;;5.18;2.10;;;;;;;;;;10471920;28;20774;-87
2022/06/07 11:59:02;;;;;;;3.95;2.70;;;;;;;;;;10473056;28;20417;-89
2022/06/07 12:04:36;;;;;;;4.43;2.37;;;;;;;;;;10466401;28;20436;-89
2022/06/07 12:09:48;;;;;;;2.40;1.70;;;;;;;;;;10446967;28;20808;-90
2022/06/07 12:14:56;;;;;;;3.90;2.13;;;;;;;;;;10459060;28;20817;-89
2022/06/07 12:20:08;;;;;;;5.20;2.10;;;;;;;;;;10471636;28;20406;-90
2022/06/07 12:25:19;;;;;;;2.40;1.77;;;;;;;;;;10470854;28;20406;-90
2022/06/07 12:30:25;;;;;;;3.35;1.58;;;;;;;;;;10475862;28;20406;-88
2022/06/07 12:35:29;;;;;;;2.50;1.20;;;;;;;;;;10476760;28;20406;-90
2022/06/07 12:40:35;;;;;;;3.57;1.40;;;;;;;;;;10476652;28;20454;-90
2022/06/07 12:45:38;;;;;;;2.10;1.55;;;;;;;;;;10486512;28;20434;-90
2022/06/07 12:50:43;;;;;;;3.13;1.48;;;;;;;;;;10486806;28;20433;-90
2022/06/07 12:55:54;;;;;;;3.20;1.57;;;;;;;;;;10482961;28;20399;-88
2022/06/07 13:00:56;;;;;;;2.67;1.48;;;;;;;;;;10480242;28;20414;-90
2022/06/07 13:06:04;;;;;;;2.67;1.20;;;;;;;;;;10480179;28;20441;-90
2022/06/07 13:11:11;;;;;;;2.70;1.57;;;;;;;;;;10456139;28;20402;-87
2022/06/07 13:16:32;;;;;;;2.85;1.40;;;;;;;;;;10476800;28;20678;-90
2022/06/07 13:21:38;;;;;;;2.77;1.40;;;;;;;;;;10478365;28;20479;-88
2022/06/07 13:26:44;;;;;;;1.83;1.67;;;;;;;;;;10479076;28;20928;-90
2022/06/07 13:31:53;;;;;;;3.57;1.70;;;;;;;;;;10477397;28;20462;-90
2022/06/07 13:37:20;;;;;;;2.38;1.40;;;;;;;;;;10480755;28;20414;-90
2022/06/07 13:42:27;;;;;;;3.22;1.80;;;;;;;;;;10481727;28;20426;-91
2022/06/07 13:47:34;;;;;;;1.80;1.60;;;;;;;;;;10475908;28;20439;-88
2022/06/07 13:57:57;;;;;;;4.45;2.10;;;;;;;;;;10477622;28;20473;-89
2022/06/07 14:02:59;;;;;;;5.18;1.73;;;;;;;;;;10473705;28;20489;-89
2022/06/07 14:08:06;;;;;;;2.20;2.00;;;;;;;;;;10479613;28;20811;-89
2022/06/07 14:13:08;;;;;;;3.25;1.90;;;;;;;;;;10482194;28;20424;-87
2022/06/07 14:18:15;;;;;;;3.33;1.90;;;;;;;;;;10467731;28;20401;-87
2022/06/07 14:23:20;;;;;;;2.85;1.52;;;;;;;;;;10474855;28;20423;-87
2022/06/07 14:28:25;;;;;;;2.60;1.17;;;;;;;;;;10473189;28;20475;-89
2022/06/07 14:33:27;;;;;;;3.53;1.38;;;;;;;;;;10450986;28;20465;-85
2022/06/07 14:38:30;;;;;;;6.30;2.20;;;;;;;;;;10468182;28;20437;-86
2022/06/07 14:43:32;;;;;;;4.47;1.33;;;;;;;;;;10470650;28;20469;-86
2022/06/07 14:48:40;;;;;;;2.00;1.35;;;;;;;;;;10468090;28;20813;-86
2022/06/07 14:53:43;;;;;;;2.47;1.10;;;;;;;;;;10467930;28;20410;-87
2022/06/07 14:58:45;;;;;;;3.17;1.00;;;;;;;;;;10468240;28;20412;-89
2022/06/07 15:03:48;;;;;;;2.13;1.10;;;;;;;;;;10469588;28;20428;-87
2022/06/07 15:08:54;;;;;;;3.10;0.97;;;;;;;;;;10469047;28;20591;-87
2022/06/07 15:13:56;;;;;;;3.10;0.90;;;;;;;;;;10472248;28;20405;-86
2022/06/07 15:18:59;;;;;;;1.33;1.00;;;;;;;;;;10470586;28;20398;-88
2022/06/07 15:24:03;;;;;;;2.35;1.00;;;;;;;;;;10468920;28;20418;-86
2022/06/07 15:29:06;;;;;;;6.55;3.17;;;;;;;;;;10463870;28;20497;-87
2022/06/07 15:34:11;;;;;;;2.27;1.10;;;;;;;;;;10466561;28;20438;-86
2022/06/07 15:39:14;;;;;;;2.35;1.10;;;;;;;;;;10467891;28;20421;-86
2022/06/07 15:44:16;;;;;;;1.90;1.17;;;;;;;;;;10466862;28;20431;-89
2022/06/07 15:49:19;;;;;;;2.75;0.95;;;;;;;;;;10471105;28;20428;-87
2022/06/07 15:54:22;;;;;;;1.55;1.00;;;;;;;;;;10469637;28;20396;-85
2022/06/07 15:59:24;;;;;;;1.88;1.20;;;;;;;;;;10471360;28;20491;-85
2022/06/07 16:04:26;;;;;;;1.38;0.80;;;;;;;;;;10474535;28;20968;-87
2022/06/07 16:09:29;;;;;;;3.35;1.58;;;;;;;;;;10480367;28;20838;-88
2022/06/07 16:14:31;;;;;;;4.10;1.10;;;;;;;;;;10503481;28;20394;-86
2022/06/07 16:19:35;;;;;;;3.17;1.20;;;;;;;;;;10514145;28;20890;-87
2022/06/07 16:24:38;;;;;;;3.20;1.40;;;;;;;;;;10484107;28;20458;-81
2022/06/07 16:35:00;;;;;;;5.60;2.10;;;;;;;;;;10478208;28;20505;-79
2022/06/07 16:40:04;;;;;;;4.28;2.05;;;;;;;;;;10481325;28;20410;-86
2022/06/07 16:45:08;;;;;;;3.43;1.30;;;;;;;;;;10457435;28;20414;-87
2022/06/07 16:50:10;;;;;;;3.00;1.20;;;;;;;;;;10478264;28;20417;-88
2022/06/07 16:55:14;;;;;;;2.93;1.37;;;;;;;;;;10480541;28;20496;-86
2022/06/07 17:00:16;;;;;;;4.63;1.40;;;;;;;;;;10481885;28;20437;-90
2022/06/07 17:05:19;;;;;;;3.97;1.40;;;;;;;;;;10478857;28;20426;-87
2022/06/07 17:10:23;;;;;;;5.33;1.60;;;;;;;;;;10483791;28;20413;-88
2022/06/07 17:15:25;;;;;;;1.73;1.00;;;;;;;;;;10484145;28;20492;-89
2022/06/07 17:20:29;;;;;;;2.08;1.25;;;;;;;;;;10483482;28;20472;-90
2022/06/07 17:25:32;;;;;;;2.42;1.25;;;;;;;;;;10485082;28;20401;-90
2022/06/07 17:30:36;;;;;;;2.20;1.00;;;;;;;;;;10481257;28;20475;-89
2022/06/07 17:35:38;;;;;;;3.38;1.20;;;;;;;;;;10478396;28;20410;-90
2022/06/07 17:40:42;;;;;;;4.63;1.20;;;;;;;;;;10476643;28;20444;-88
2022/06/07 17:45:44;;;;;;;2.92;1.10;;;;;;;;;;10462002;28;20410;-86
2022/06/07 17:50:47;;;;;;;2.85;0.88;;;;;;;;;;10475274;28;21401;-85
2022/06/07 17:55:53;;;;;;;2.40;1.00;;;;;;;;;;10471904;28;20483;-85
2022/06/07 18:00:55;;;;;;;1.70;0.63;;;;;;;;;;10467160;28;20410;-85
2022/06/07 18:05:59;;;;;;;1.83;0.52;;;;;;;;;;10472891;28;20402;-85
2022/06/07 18:11:03;;;;;;;1.03;0.30;;;;;;;;;;10470265;28;20406;-84
2022/06/07 18:16:06;;;;;;;1.30;0.70;;;;;;;;;;10467147;28;20455;-88
2022/06/07 18:21:11;;;;;;;1.23;0.60;;;;;;;;;;10469294;28;20514;-88
2022/06/07 18:26:17;;;;;;;1.17;0.40;;;;;;;;;;10471701;28;20422;-87
2022/06/07 18:31:24;;;;;;;4.05;0.50;;;;;;;;;;10465913;28;20425;-88
2022/06/07 18:36:28;;;;;;;1.00;0.30;;;;;;;;;;10464852;28;20565;-87
2022/06/07 18:41:33;;;;;;;0.73;0.30;;;;;;;;;;10465904;28;20423;-88
2022/06/07 18:46:35;;;;;;;2.30;0.40;;;;;;;;;;10443008;28;20415;-88
2022/06/07 18:51:37;;;;;;;1.98;0.50;;;;;;;;;;10445665;28;20441;-88
2022/06/07 18:56:40;;;;;;;0.40;0.20;;;;;;;;;;10450531;28;20414;-88
2022/06/07 19:01:43;;;;;;;0.35;0.30;;;;;;;;;;10460265;28;20457;-88
2022/06/07 19:06:45;;;;;;;0.93;0.30;;;;;;;;;;10458064;28;20417;-86
2022/06/07 19:11:51;;;;;;;2.15;0.50;;;;;;;;;;10468438;28;20434;-86
2022/06/07 19:16:53;;;;;;;0.90;0.50;;;;;;;;;;10471752;28;20905;-86
2022/06/07 19:21:55;;;;;;;1.55;0.60;;;;;;;;;;10470259;28;20522;-84
2022/06/07 19:27:01;;;;;;;1.40;0.57;;;;;;;;;;10468154;28;20410;-84
2022/06/07 19:32:04;;;;;;;6.93;3.30;;;;;;;;;;10468457;28;20929;-85
2022/06/07 19:37:08;;;;;;;6.13;3.57;;;;;;;;;;10468598;28;20514;-85
2022/06/07 19:42:12;;;;;;;4.32;2.80;;;;;;;;;;10466022;28;20418;-85
2022/06/07 19:47:14;;;;;;;2.50;1.55;;;;;;;;;;10466119;28;20925;-85
2022/06/07 19:52:16;;;;;;;3.45;1.52;;;;;;;;;;10465693;28;20471;-85
2022/06/07 19:57:21;;;;;;;3.77;1.87;;;;;;;;;;10460514;28;20441;-84
2022/06/07 20:02:23;;;;;;;4.53;1.80;;;;;;;;;;10464954;28;20888;-86
2022/06/07 20:07:25;;;;;;;2.58;2.05;;;;;;;;;;10465815;28;20421;-87
2022/06/07 20:12:28;;;;;;;3.33;2.08;;;;;;;;;;10464305;28;20418;-85
2022/06/07 20:17:30;;;;;;;2.22;1.90;;;;;;;;;;10467258;28;20500;-85
2022/06/07 20:22:32;;;;;;;2.90;2.20;;;;;;;;;;10461346;28;20418;-83
2022/06/07 20:27:36;;;;;;;3.90;2.20;;;;;;;;;;10464599;28;20898;-85
2022/06/07 20:32:38;;;;;;;5.10;2.28;;;;;;;;;;10463604;28;20759;-86
2022/06/07 20:37:40;;;;;;;3.03;2.33;;;;;;;;;;10459469;28;20758;-84
2022/06/07 20:42:44;;;;;;;2.47;1.70;;;;;;;;;;10475865;28;20426;-85
2022/06/07 20:47:46;;;;;;;3.00;1.93;;;;;;;;;;10507284;28;20825;-87
2022/06/07 20:52:48;;;;;;;3.50;2.20;;;;;;;;;;10466620;28;20398;-86
2022/06/07 20:57:51;;;;;;;2.40;1.80;;;;;;;;;;10460972;28;20414;-86
2022/06/07 21:02:53;;;;;;;4.65;1.95;;;;;;;;;;10473695;28;20495;-85
2022/06/07 21:07:55;;;;;;;2.90;1.83;;;;;;;;;;10475313;28;20429;-84
2022/06/07 21:12:59;;;;;;;4.38;2.03;;;;;;;;;;10474202;28;20402;-84
2022/06/07 21:18:01;;;;;;;2.20;1.80;;;;;;;;;;10477624;28;20402;-84
2022/06/07 21:23:04;;;;;;;2.60;1.73;;;;;;;;;;10472871;28;20497;-84
2022/06/07 21:28:08;;;;;;;3.47;2.00;;;;;;;;;;10469387;28;20407;-84
2022/06/07 21:33:11;;;;;;;3.55;2.03;;;;;;;;;;10470491;28;20413;-84
2022/06/07 21:38:13;;;;;;;2.65;1.92;;;;;;;;;;10467908;28;20404;-84
2022/06/07 21:43:19;;;;;;;3.15;1.73;;;;;;;;;;10462252;28;20423;-84
2022/06/07 21:48:23;;;;;;;2.50;1.88;;;;;;;;;;10467824;28;20402;-84
2022/06/07 21:53:25;;;;;;;3.88;1.80;;;;;;;;;;10466683;28;20409;-84
2022/06/07 21:58:29;;;;;;;4.38;2.00;;;;;;;;;;10474610;28;20406;-84
2022/06/07 22:03:31;;;;;;;3.22;2.13;;;;;;;;;;10475138;28;20905;-84
2022/06/07 22:08:35;;;;;;;2.60;1.70;;;;;;;;;;10471132;28;20502;-84
2022/06/07 22:13:39;;;;;;;2.67;2.10;;;;;;;;;;10473188;28;20541;-84
2022/06/07 22:18:41;;;;;;;5.03;2.50;;;;;;;;;;10465273;28;20406;-84
2022/06/07 22:23:43;;;;;;;3.22;2.53;;;;;;;;;;10473705;28;20970;-84
2022/06/07 22:34:43;;;;;;;3.80;2.22;;;;;;;;;;10472654;28;20387;-84
2022/06/07 22:39:45;;;;;;;2.30;2.03;;;;;;;;;;10468782;28;20414;-84
2022/06/07 22:44:47;;;;;;;3.97;1.95;;;;;;;;;;10467213;28;20424;-84
2022/06/07 22:49:50;;;;;;;2.83;1.92;;;;;;;;;;10472190;28;20414;-84
2022/06/07 22:54:56;;;;;;;2.33;2.13;;;;;;;;;;10469601;28;20401;-84
2022/06/07 23:00:02;;;;;;;4.23;2.23;;;;;;;;;;10465204;28;20931;-83
2022/06/07 23:05:06;;;;;;;2.20;2.00;;;;;;;;;;10458546;28;20443;-84
2022/06/07 23:10:09;;;;;;;3.08;1.90;;;;;;;;;;10463680;28;20409;-84
2022/06/07 23:20:33;;;;;;;2.50;2.20;;;;;;;;;;10460637;28;20474;-84
2022/06/07 23:25:35;;;;;;;2.60;1.77;;;;;;;;;;10454769;28;20903;-84
2022/06/07 23:30:37;;;;;;;2.70;2.15;;;;;;;;;;10459814;28;20403;-84
2022/06/07 23:35:40;;;;;;;4.13;2.10;;;;;;;;;;10465169;28;20495;-84
2022/06/07 23:40:42;;;;;;;2.30;1.90;;;;;;;;;;10469043;28;21066;-84
2022/06/07 23:45:44;;;;;;;3.20;1.80;;;;;;;;;;10463804;28;20432;-82
2022/06/07 23:50:47;;;;;;;3.83;2.27;;;;;;;;;;10453630;28;20401;-84
2022/06/07 23:55:51;;;;;;;3.05;2.20;;;;;;;;;;10471953;28;20408;-84
